Time;durP1;ratioP1;P1;durP2;ratioP2;P2;SDS_P1;SDS_P2;PMS_P1;PMS_P2;Temp;Humidity;BMP_temperature;BMP_pressure;BME280_temperature;BME280_humidity;BME280_pressure;Samples;Min_cycle;Max_cycle;Signal;HPM_P1;HPM_P2
2022/12/19 00:01:45;;;;;;;50.95;20.63;;;;;;;-1.26;71.77;101092.13;10370382;28;20042;-77
2022/12/19 00:06:48;;;;;;;51.20;22.45;;;;;;;-1.40;72.73;101087.16;10364706;28;20092;-76
2022/12/19 00:11:53;;;;;;;47.42;19.42;;;;;;;-1.35;73.10;101078.25;10361695;28;20042;-77
2022/12/19 00:16:56;;;;;;;40.10;16.25;;;;;;;-1.51;73.40;101072.44;10362511;28;20054;-78
2022/12/19 00:22:00;;;;;;;48.10;20.77;;;;;;;-1.40;73.92;101059.91;10361825;28;20049;-77
2022/12/19 00:27:04;;;;;;;45.88;18.17;;;;;;;-1.40;74.33;101060.78;10360212;28;20069;-78
2022/12/19 00:32:07;;;;;;;52.35;21.73;;;;;;;-1.36;74.92;101055.44;10349218;28;20047;-79
2022/12/19 00:37:11;;;;;;;50.63;20.70;;;;;;;-1.33;74.94;101053.63;10359406;28;20077;-77
2022/12/19 00:42:15;;;;;;;61.80;24.58;;;;;;;-1.44;75.45;101037.16;10346271;28;20050;-78
2022/12/19 00:47:18;;;;;;;52.33;23.73;;;;;;;-1.40;75.81;101039.72;10359703;28;20069;-78
2022/12/19 00:52:21;;;;;;;58.97;25.08;;;;;;;-1.25;76.23;101021.81;10360434;28;20069;-78
2022/12/19 00:57:26;;;;;;;56.13;23.23;;;;;;;-1.19;75.82;101017.25;10358081;28;20057;-78
2022/12/19 01:02:29;;;;;;;43.97;16.88;;;;;;;-1.03;76.01;101012.53;10358367;28;20653;-78
2022/12/19 01:07:32;;;;;;;58.17;24.15;;;;;;;-1.03;76.21;100999.34;10356949;28;20052;-78
2022/12/19 01:12:45;;;;;;;53.00;24.30;;;;;;;-0.91;76.59;100998.16;10357699;28;20039;-77
2022/12/19 01:17:49;;;;;;;53.90;23.48;;;;;;;-1.06;77.36;100991.50;10357565;28;20080;-78
2022/12/19 01:22:53;;;;;;;44.75;19.35;;;;;;;-1.01;77.03;100986.13;10357119;28;20110;-77
2022/12/19 01:27:57;;;;;;;52.22;23.33;;;;;;;-0.88;77.15;100987.53;10357833;28;20070;-78
2022/12/19 01:33:01;;;;;;;51.67;22.90;;;;;;;-0.87;77.21;100991.06;10356876;28;20041;-77
2022/12/19 01:38:04;;;;;;;50.70;21.77;;;;;;;-0.76;76.87;100979.34;10359319;28;20065;-78
2022/12/19 01:43:16;;;;;;;52.75;23.17;;;;;;;-0.74;76.99;100960.81;10356228;28;20039;-78
2022/12/19 01:48:22;;;;;;;50.40;21.60;;;;;;;-0.57;76.99;100956.00;10336720;28;20515;-76
2022/12/19 01:53:28;;;;;;;50.95;22.40;;;;;;;-0.67;76.94;100959.78;10351705;28;20403;-77
2022/12/19 01:58:33;;;;;;;52.40;23.23;;;;;;;-0.61;76.90;100958.75;10342433;28;20325;-78
2022/12/19 02:03:39;;;;;;;55.47;23.38;;;;;;;-0.58;77.34;100948.97;10350880;28;20085;-78
2022/12/19 02:08:47;;;;;;;52.38;21.58;;;;;;;-0.60;77.40;100940.25;10343738;28;20054;-77
2022/12/19 02:13:51;;;;;;;55.75;21.27;;;;;;;-0.72;77.47;100935.28;10316337;28;20202;-78
2022/12/19 02:19:04;;;;;;;43.95;18.50;;;;;;;-0.58;77.48;100927.00;10335804;28;20038;-78
2022/12/19 02:24:43;;;;;;;37.00;15.52;;;;;;;-0.53;77.54;100910.13;10335106;28;20038;-77
2022/12/19 02:30:05;;;;;;;53.60;23.20;;;;;;;-0.60;78.19;100903.31;10332687;28;20526;-78
2022/12/19 02:35:23;;;;;;;51.60;20.95;;;;;;;-0.49;78.04;100892.47;10320530;28;20364;-77
2022/12/19 02:40:31;;;;;;;49.47;22.00;;;;;;;-0.30;77.77;100904.25;10333850;28;20112;-78
2022/12/19 02:45:37;;;;;;;49.90;22.15;;;;;;;-0.29;78.00;100903.31;10306898;28;20173;-78
2022/12/19 02:50:44;;;;;;;57.00;22.77;;;;;;;-0.22;78.05;100904.03;10333891;28;20050;-77
2022/12/19 02:56:06;;;;;;;48.72;21.50;;;;;;;-0.24;78.17;100899.72;10319525;28;20054;-78
2022/12/19 03:01:23;;;;;;;51.67;22.00;;;;;;;-0.20;78.46;100890.78;10316073;28;20377;-77
2022/12/19 03:06:35;;;;;;;56.35;23.25;;;;;;;-0.16;78.46;100881.88;10333079;28;20042;-77
2022/12/19 03:11:40;;;;;;;;;;;;;;;-0.18;78.47;100884.53;10345959;28;20061;-78
2022/12/19 03:16:43;;;;;;;51.28;23.50;;;;;;;-0.12;78.90;100873.81;10352661;28;19922;-78
2022/12/19 03:21:51;;;;;;;50.03;21.73;;;;;;;-0.13;79.20;100865.94;10352449;28;20038;-77
2022/12/19 03:27:02;;;;;;;39.60;17.65;;;;;;;0.00;80.02;100864.69;10343544;28;20046;-78
2022/12/19 03:32:09;;;;;;;35.78;17.17;;;;;;;0.31;79.70;100847.88;10340922;28;20046;-78
2022/12/19 03:37:17;;;;;;;35.90;17.92;;;;;;;0.34;79.22;100829.28;10340180;28;20089;-77
2022/12/19 03:47:49;;;;;;;41.90;19.02;;;;;;;0.65;79.70;100831.81;10410423;23;20036;-76
2022/12/19 03:53:03;;;;;;;44.00;18.90;;;;;;;0.61;79.72;100836.34;10454600;28;20041;-76
2022/12/19 03:58:10;;;;;;;42.22;17.58;;;;;;;0.64;79.75;100810.72;10455411;28;20077;-76
2022/12/19 04:03:16;;;;;;;43.65;20.92;;;;;;;0.60;80.20;100802.88;10456336;28;20158;-76
2022/12/19 04:08:21;;;;;;;45.28;20.95;;;;;;;0.42;80.64;100779.69;10438689;28;20053;-76
2022/12/19 04:13:31;;;;;;;49.80;22.88;;;;;;;0.47;80.54;100790.13;10456268;28;20485;-77
2022/12/19 04:18:35;;;;;;;54.65;22.45;;;;;;;0.31;80.72;100781.81;10455366;28;20037;-77
2022/12/19 04:23:44;;;;;;;50.80;24.08;;;;;;;0.17;81.12;100767.25;10453032;28;20048;-77
2022/12/19 04:28:51;;;;;;;48.70;22.60;;;;;;;0.29;81.32;100744.84;10436926;28;20463;-77
2022/12/19 04:33:54;;;;;;;55.10;24.33;;;;;;;0.32;81.65;100754.47;10454490;28;20037;-77
2022/12/19 04:38:58;;;;;;;45.05;20.27;;;;;;;0.39;81.63;100748.06;10455574;28;20378;-77
2022/12/19 04:44:01;;;;;;;44.60;19.60;;;;;;;0.50;81.98;100753.00;10453684;28;20056;-77
2022/12/19 04:49:04;;;;;;;47.00;20.45;;;;;;;0.74;81.81;100740.72;10454617;28;20501;-78
2022/12/19 04:54:08;;;;;;;47.00;20.85;;;;;;;0.77;81.59;100738.84;10454321;28;20132;-77
2022/12/19 04:59:12;;;;;;;47.90;21.40;;;;;;;0.78;81.96;100737.06;10454344;28;20045;-78
2022/12/19 05:04:15;;;;;;;64.38;28.55;;;;;;;0.80;81.78;100727.31;10453720;28;20045;-77
2022/12/19 05:09:19;;;;;;;44.58;19.55;;;;;;;0.72;82.24;100710.84;10451348;28;20067;-77
2022/12/19 05:14:22;;;;;;;60.97;28.58;;;;;;;0.80;81.81;100701.72;10436638;28;20445;-76
2022/12/19 05:19:25;;;;;;;54.72;24.80;;;;;;;0.50;81.41;100684.28;10452803;28;20094;-77
2022/12/19 05:24:29;;;;;;;56.05;24.38;;;;;;;0.45;81.79;100687.06;10454020;28;20087;-77
2022/12/19 05:29:33;;;;;;;52.03;22.45;;;;;;;0.44;82.13;100695.94;10453941;28;20391;-77
2022/12/19 05:34:36;;;;;;;52.10;23.77;;;;;;;0.59;82.51;100674.22;10453954;28;20494;-77
2022/12/19 05:39:40;;;;;;;50.08;23.08;;;;;;;0.46;82.40;100667.63;10453619;28;20051;-75
2022/12/19 05:44:43;;;;;;;56.97;23.17;;;;;;;0.52;82.69;100661.28;10455280;28;20124;-77
2022/12/19 05:49:46;;;;;;;47.45;18.10;;;;;;;0.38;82.53;100667.03;10453521;28;20044;-78
2022/12/19 05:54:50;;;;;;;51.88;24.52;;;;;;;0.53;82.88;100663.88;10453497;28;20083;-77
2022/12/19 05:59:53;;;;;;;46.75;20.63;;;;;;;0.68;83.15;100659.81;10452880;28;20045;-78
2022/12/19 06:04:56;;;;;;;54.05;23.15;;;;;;;0.75;83.30;100663.13;10453356;28;20049;-79
2022/12/19 06:10:00;;;;;;;51.00;21.30;;;;;;;1.03;83.07;100661.19;10452893;28;20045;-77
2022/12/19 06:15:03;;;;;;;47.72;22.08;;;;;;;1.00;83.25;100663.09;10452887;28;20565;-77
2022/12/19 06:20:07;;;;;;;47.13;21.70;;;;;;;1.11;83.46;100674.13;10452438;28;20049;-78
2022/12/19 06:25:13;;;;;;;52.15;24.30;;;;;;;1.12;83.49;100662.63;10451385;28;20482;-77
2022/12/19 06:30:16;;;;;;;47.92;22.45;;;;;;;1.10;83.55;100658.31;10452180;28;20053;-79
2022/12/19 06:35:19;;;;;;;60.60;24.80;;;;;;;1.18;83.50;100656.22;10452727;28;20052;-78
2022/12/19 06:45:40;;;;;;;52.67;23.52;;;;;;;1.19;83.89;100665.91;10453274;28;20075;-78
2022/12/19 06:50:43;;;;;;;59.10;25.02;;;;;;;1.17;84.36;100673.91;10461809;28;20072;-78
2022/12/19 06:55:48;;;;;;;53.53;24.08;;;;;;;1.22;84.30;100663.16;10470174;28;20052;-78
2022/12/19 07:00:51;;;;;;;52.08;22.58;;;;;;;1.22;84.73;100666.66;10470107;28;20095;-78
2022/12/19 07:05:54;;;;;;;55.10;24.58;;;;;;;1.28;84.93;100669.06;10470788;28;20551;-79
2022/12/19 07:10:59;;;;;;;56.22;25.00;;;;;;;1.25;85.13;100674.47;10470575;28;20103;-78
2022/12/19 07:16:04;;;;;;;56.78;23.58;;;;;;;1.26;85.36;100675.34;10471221;28;20071;-79
2022/12/19 07:21:11;;;;;;;59.88;27.25;;;;;;;1.27;85.44;100669.13;10487828;28;20045;-79
2022/12/19 07:26:15;;;;;;;57.08;25.20;;;;;;;1.28;85.38;100674.34;10497387;28;20054;-78
2022/12/19 07:31:18;;;;;;;63.55;26.58;;;;;;;1.27;85.91;100675.28;10485540;28;20053;-77
2022/12/19 07:36:20;;;;;;;62.60;25.65;;;;;;;1.25;86.23;100669.19;10479050;28;20063;-79
2022/12/19 07:41:25;;;;;;;52.88;24.70;;;;;;;1.31;86.04;100681.31;10494769;28;20053;-78
2022/12/19 07:46:29;;;;;;;68.53;29.90;;;;;;;1.20;86.39;100665.84;10493020;28;20049;-78
2022/12/19 07:51:32;;;;;;;67.03;27.30;;;;;;;1.27;87.01;100666.50;10472491;28;20410;-79
2022/12/19 07:56:36;;;;;;;78.78;30.10;;;;;;;1.52;86.82;100676.16;10485356;28;20080;-80
2022/12/19 08:01:39;;;;;;;57.45;26.13;;;;;;;1.58;87.01;100675.91;10459776;28;20497;-79
2022/12/19 08:06:42;;;;;;;55.45;25.58;;;;;;;1.68;86.96;100678.13;10478075;28;20063;-79
2022/12/19 08:11:46;;;;;;;48.10;24.58;;;;;;;1.65;86.88;100677.41;10470531;28;20052;-78
2022/12/19 08:16:49;;;;;;;49.22;22.80;;;;;;;1.73;87.98;100670.88;10458738;28;20098;-79
2022/12/19 08:22:12;;;;;;;47.22;22.25;;;;;;;1.80;87.81;100666.16;10449645;28;20115;-78
2022/12/19 08:27:17;;;;;;;50.97;24.67;;;;;;;1.59;87.47;100672.31;10472162;28;20048;-79
2022/12/19 08:32:20;;;;;;;58.75;27.13;;;;;;;1.48;87.83;100663.03;10457137;28;20049;-79
2022/12/19 08:37:23;;;;;;;65.93;30.33;;;;;;;1.28;87.66;100662.91;10477326;28;20110;-80
2022/12/19 08:42:28;;;;;;;67.90;29.75;;;;;;;1.31;87.68;100659.28;10491750;28;20098;-81
2022/12/19 08:47:30;;;;;;;84.50;33.22;;;;;;;1.30;87.75;100658.44;10483714;28;20045;-80
2022/12/19 08:52:33;;;;;;;90.22;33.90;;;;;;;1.25;87.83;100660.38;10469575;28;20155;-80
2022/12/19 08:57:38;;;;;;;87.95;34.00;;;;;;;1.25;88.01;100653.31;10483469;28;20040;-79
2022/12/19 09:02:41;;;;;;;91.80;34.95;;;;;;;1.36;87.72;100652.03;10469074;28;20044;-79
2022/12/19 09:07:45;;;;;;;88.90;33.83;;;;;;;1.39;87.48;100658.06;10481105;28;20040;-82
2022/12/19 09:12:49;;;;;;;79.60;32.15;;;;;;;1.40;87.42;100646.56;10483917;28;20039;-81
2022/12/19 09:17:59;;;;;;;82.13;30.52;;;;;;;1.45;87.40;100654.31;10478144;28;20051;-80
2022/12/19 09:23:02;;;;;;;80.85;32.05;;;;;;;1.55;87.86;100650.41;10482533;28;20044;-81
2022/12/19 09:28:06;;;;;;;73.53;28.95;;;;;;;1.66;87.84;100658.78;10474226;28;20075;-80
2022/12/19 09:33:31;;;;;;;68.82;29.27;;;;;;;1.76;88.18;100647.84;10492061;28;20046;-81
2022/12/19 09:38:39;;;;;;;68.80;29.83;;;;;;;1.87;87.76;100645.63;10465243;28;20049;-80
2022/12/19 09:44:00;;;;;;;65.70;26.65;;;;;;;1.67;88.10;100649.94;10463996;28;20061;-80
2022/12/19 09:49:11;;;;;;;71.95;30.27;;;;;;;1.85;87.83;100650.97;10489610;23;20505;-80
2022/12/19 09:54:19;;;;;;;62.72;28.55;;;;;;;1.87;87.81;100651.78;10470367;28;20045;-80
2022/12/19 09:59:29;;;;;;;70.55;29.52;;;;;;;1.85;87.81;100648.31;10493475;28;20040;-80
2022/12/19 10:04:49;;;;;;;64.20;27.42;;;;;;;2.00;88.59;100643.31;10498734;28;20036;-80
2022/12/19 10:10:00;;;;;;;66.63;29.33;;;;;;;2.15;88.59;100647.97;10517848;28;20097;-78
2022/12/19 10:15:34;;;;;;;73.60;30.17;;;;;;;2.12;88.19;100642.81;10498397;28;20060;-78
2022/12/19 10:20:40;;;;;;;66.57;29.60;;;;;;;2.02;88.30;100639.66;10498035;28;20403;-78
2022/12/19 10:25:51;;;;;;;64.20;28.27;;;;;;;2.02;87.93;100630.84;10509680;28;20082;-78
2022/12/19 10:31:04;;;;;;;57.45;30.38;;;;;;;2.01;88.09;100627.34;10549659;28;20206;-80
2022/12/19 10:36:18;;;;;;;68.00;28.27;;;;;;;2.22;88.01;100633.53;10500277;28;20077;-79
2022/12/19 10:41:24;;;;;;;70.38;30.13;;;;;;;2.22;87.94;100632.66;10521190;28;20386;-79
2022/12/19 10:46:37;;;;;;;70.35;29.95;;;;;;;2.15;88.12;100626.78;10525211;28;20041;-79
2022/12/19 10:51:41;;;;;;;65.15;29.25;;;;;;;2.37;88.39;100624.06;10490528;28;20060;-79
2022/12/19 10:56:44;;;;;;;72.38;33.65;;;;;;;2.47;87.76;100619.22;10507898;28;20044;-80
2022/12/19 11:01:48;;;;;;;66.38;31.42;;;;;;;2.44;87.46;100619.34;10529391;28;20041;-80
2022/12/19 11:07:18;;;;;;;56.13;27.17;;;;;;;2.39;87.68;100617.78;10538296;28;20040;-78
2022/12/19 11:12:25;;;;;;;57.30;28.10;;;;;;;2.43;87.74;100618.50;10533047;28;20481;-80
2022/12/19 11:17:49;;;;;;;60.25;26.83;;;;;;;2.53;87.97;100617.19;10522176;28;20504;-79
2022/12/19 11:23:15;;;;;;;58.63;28.27;;;;;;;2.65;88.11;100605.19;10520058;28;20437;-79
2022/12/19 11:28:39;;;;;;;59.15;27.55;;;;;;;2.71;88.33;100596.94;10523942;28;20477;-79
2022/12/19 11:34:13;;;;;;;52.28;26.30;;;;;;;3.01;89.09;100581.41;10521982;28;20857;-80
2022/12/19 11:39:22;;;;;;;43.58;22.30;;;;;;;3.43;89.96;100574.16;10527200;28;20048;-80
2022/12/19 11:44:30;;;;;;;32.30;17.65;;;;;;;4.04;91.07;100573.78;10526101;28;20481;-80
2022/12/19 11:49:38;;;;;;;32.70;15.60;;;;;;;4.67;91.10;100554.53;10545091;28;20070;-80
2022/12/19 11:54:55;;;;;;;29.38;15.00;;;;;;;5.01;90.45;100574.03;10532504;28;20044;-80
2022/12/19 11:59:58;;;;;;;36.08;19.63;;;;;;;4.07;86.53;100581.59;10528367;28;20050;-80
2022/12/19 12:05:41;;;;;;;37.95;22.92;;;;;;;3.24;87.41;100584.81;10520248;28;20048;-79
2022/12/19 12:10:52;;;;;;;49.08;23.27;;;;;;;3.04;88.25;100583.94;10544375;28;20044;-80
2022/12/19 12:16:17;;;;;;;51.55;26.98;;;;;;;2.97;88.43;100579.00;10519565;28;20043;-80
2022/12/19 12:21:50;;;;;;;52.28;27.55;;;;;;;3.05;88.67;100584.81;10526215;28;20037;-79
2022/12/19 12:27:29;;;;;;;52.10;25.13;;;;;;;3.12;88.49;100588.03;10511213;28;20041;-80
2022/12/19 12:33:06;;;;;;;52.28;25.38;;;;;;;2.97;88.45;100590.47;10527419;28;20051;-78
2022/12/19 12:38:43;;;;;;;60.92;28.70;;;;;;;2.93;88.07;100596.81;10531835;28;20044;-78
2022/12/19 12:44:04;;;;;;;53.55;27.00;;;;;;;2.84;87.80;100591.94;10547963;28;20044;-78
2022/12/19 12:49:23;;;;;;;62.92;31.85;;;;;;;2.78;87.80;100600.19;10539705;28;20032;-79
2022/12/19 12:54:33;;;;;;;66.57;31.65;;;;;;;2.68;87.69;100598.88;10522837;28;20059;-78
2022/12/19 12:59:36;;;;;;;71.38;34.17;;;;;;;2.81;87.97;100585.00;10527759;28;20168;-78
2022/12/19 13:04:53;;;;;;;62.13;29.42;;;;;;;2.91;88.29;100579.25;10538470;28;20047;-78
2022/12/19 13:10:20;;;;;;;62.33;30.23;;;;;;;2.98;88.73;100573.59;10527967;28;20070;-78
2022/12/19 13:15:36;;;;;;;49.15;24.67;;;;;;;2.95;88.61;100588.81;10517580;28;20639;-78
2022/12/19 13:20:42;;;;;;;46.60;23.15;;;;;;;3.13;88.58;100573.84;10526626;28;20093;-79
2022/12/19 13:25:52;;;;;;;46.80;24.85;;;;;;;3.46;89.59;100560.75;10532156;28;20044;-78
2022/12/19 13:31:18;;;;;;;38.35;19.95;;;;;;;4.00;90.28;100558.06;10507709;28;20485;-80
2022/12/19 13:36:48;;;;;;;36.67;18.27;;;;;;;4.47;90.15;100552.06;10529361;28;20037;-78
2022/12/19 13:47:41;;;;;;;47.33;23.58;;;;;;;4.45;88.33;100544.19;10515271;28;20071;-78
2022/12/19 13:52:48;;;;;;;52.63;29.83;;;;;;;4.02;86.98;100551.72;10545322;28;20036;-79
2022/12/19 13:57:54;;;;;;;55.38;27.95;;;;;;;3.46;87.09;100563.41;10513882;28;20042;-78
2022/12/19 14:03:00;;;;;;;58.90;28.52;;;;;;;3.31;87.43;100556.16;10533827;28;20058;-77
2022/12/19 14:08:06;;;;;;;66.70;33.03;;;;;;;3.11;87.33;100549.16;10542392;28;20044;-78
2022/12/19 14:18:58;;;;;;;75.35;31.88;;;;;;;2.72;87.38;100536.81;10537443;28;20048;-79
2022/12/19 14:24:15;;;;;;;87.18;36.90;;;;;;;2.85;87.39;100532.63;10536222;28;20105;-79
2022/12/19 14:29:25;;;;;;;95.38;42.42;;;;;;;2.79;87.13;100531.13;10491222;28;20048;-78
2022/12/19 14:34:49;;;;;;;80.13;36.00;;;;;;;2.70;87.30;100531.56;10532239;28;20058;-79
2022/12/19 14:40:24;;;;;;;78.28;35.70;;;;;;;2.59;87.10;100526.75;10531117;28;20045;-81
2022/12/19 14:45:38;;;;;;;75.03;32.17;;;;;;;2.52;86.60;100527.06;10541946;28;20044;-80
2022/12/19 14:51:10;;;;;;;67.25;30.83;;;;;;;2.53;86.88;100520.84;10505361;28;20497;-79
2022/12/19 14:56:34;;;;;;;;;;;;;;;2.56;86.52;100518.09;10528028;28;20119;-82
2022/12/19 15:02:03;;;;;;;77.72;33.80;;;;;;;2.45;86.69;100499.13;10522466;28;19931;-79
2022/12/19 15:07:08;;;;;;;68.90;32.45;;;;;;;2.55;86.71;100505.72;10511543;28;20052;-79
2022/12/19 15:17:58;;;;;;;78.93;35.28;;;;;;;2.56;86.97;100504.81;10521951;28;20041;-79
2022/12/19 15:23:02;;;;;;;69.97;31.08;;;;;;;2.66;87.03;100498.16;10506420;28;20036;-80
2022/12/19 15:28:13;;;;;;;49.30;23.27;;;;;;;3.28;88.60;100478.34;10524096;28;20103;-80
2022/12/19 15:33:18;;;;;;;31.00;16.27;;;;;;;4.52;88.19;100479.03;10518218;28;20077;-80
2022/12/19 15:38:21;;;;;;;39.08;21.17;;;;;;;4.18;84.56;100475.53;10516731;28;20055;-79
2022/12/19 15:43:24;;;;;;;40.08;21.23;;;;;;;4.01;85.06;100469.41;10512146;28;20144;-79
2022/12/19 15:48:50;;;;;;;26.52;13.90;;;;;;;4.22;85.24;100480.69;10534013;22;20067;-79
2022/12/19 15:53:53;;;;;;;16.08;9.68;;;;;;;4.90;84.90;100459.25;10508067;28;20110;-79
2022/12/19 15:59:16;;;;;;;14.57;9.20;;;;;;;5.31;82.62;100461.41;10510804;28;20115;-79
2022/12/19 16:04:22;;;;;;;15.93;9.15;;;;;;;5.53;80.43;100467.19;10508480;28;20043;-78
2022/12/19 16:09:27;;;;;;;12.98;7.63;;;;;;;5.75;78.25;100468.59;10505936;28;20051;-78
2022/12/19 16:14:30;;;;;;;14.30;7.20;;;;;;;5.70;77.11;100482.19;10503485;28;20044;-78
2022/12/19 16:19:35;;;;;;;12.25;8.20;;;;;;;5.92;76.29;100460.44;10501839;28;20048;-78
2022/12/19 16:24:38;;;;;;;12.10;7.97;;;;;;;5.86;76.22;100455.47;10501993;28;20044;-78
2022/12/19 16:29:41;;;;;;;9.23;6.00;;;;;;;5.82;74.91;100449.47;10517027;28;20107;-78
2022/12/19 16:34:45;;;;;;;11.35;6.97;;;;;;;6.16;73.48;100432.25;10532873;28;20058;-79
2022/12/19 16:39:48;;;;;;;11.63;6.90;;;;;;;6.28;73.45;100421.78;10523719;28;20055;-78
2022/12/19 16:44:52;;;;;;;11.43;6.30;;;;;;;6.24;73.16;100428.28;10524691;28;20045;-76
2022/12/19 16:49:56;;;;;;;11.38;6.82;;;;;;;6.50;72.92;100414.16;10516358;28;20040;-78
2022/12/19 16:54:59;;;;;;;10.43;6.53;;;;;;;6.32;72.71;100420.66;10502957;28;20497;-78
2022/12/19 17:00:02;;;;;;;8.80;6.15;;;;;;;6.26;72.99;100426.38;10519520;28;20052;-78
2022/12/19 17:05:14;;;;;;;12.50;6.18;;;;;;;6.52;72.56;100422.91;10495706;28;20052;-78
2022/12/19 17:10:17;;;;;;;12.73;6.20;;;;;;;6.56;72.34;100421.75;10517507;28;20044;-78
2022/12/19 17:15:30;;;;;;;10.00;6.15;;;;;;;6.61;72.05;100433.00;10517766;28;20040;-78
2022/12/19 17:20:37;;;;;;;8.35;6.15;;;;;;;6.61;71.95;100449.03;10513985;28;20110;-77
2022/12/19 17:25:40;;;;;;;9.65;6.78;;;;;;;6.28;72.14;100465.34;10515538;28;20083;-76
2022/12/19 17:30:48;;;;;;;12.52;8.05;;;;;;;6.14;72.45;100492.88;10509454;28;20048;-78
2022/12/19 17:35:53;;;;;;;16.65;8.70;;;;;;;6.23;72.83;100494.13;10497043;28;20135;-78
2022/12/19 17:40:55;;;;;;;12.70;7.68;;;;;;;6.18;72.20;100483.72;10509636;28;20081;-77
2022/12/19 17:45:58;;;;;;;12.20;7.82;;;;;;;6.19;71.88;100481.91;10510862;28;20082;-77
2022/12/19 17:51:03;;;;;;;10.98;6.68;;;;;;;6.16;71.61;100474.09;10496703;28;20066;-77
2022/12/19 17:56:12;;;;;;;10.90;7.15;;;;;;;6.46;71.81;100470.47;10481026;28;20052;-77
2022/12/19 18:01:18;;;;;;;12.85;8.05;;;;;;;6.39;71.55;100462.88;10497214;28;20049;-77
2022/12/19 18:06:23;;;;;;;11.13;6.82;;;;;;;6.23;72.20;100461.25;10496980;28;20098;-79
2022/12/19 18:11:26;;;;;;;11.85;8.23;;;;;;;6.31;72.51;100473.16;10495202;28;20051;-78
2022/12/19 18:16:30;;;;;;;11.75;7.68;;;;;;;6.21;71.84;100472.00;10497410;28;20040;-77
2022/12/19 18:21:34;;;;;;;16.30;7.05;;;;;;;6.14;71.76;100471.53;10495990;28;20048;-77
2022/12/19 18:26:37;;;;;;;11.02;7.03;;;;;;;6.15;71.90;100461.72;10511631;28;20040;-77
2022/12/19 18:31:41;;;;;;;10.32;6.43;;;;;;;6.18;71.96;100445.50;10515288;28;20127;-78
2022/12/19 18:36:54;;;;;;;12.10;5.83;;;;;;;6.05;72.45;100455.22;10514874;28;20033;-77
2022/12/19 18:41:56;;;;;;;8.88;6.03;;;;;;;6.03;72.64;100463.28;10513191;28;20037;-77
2022/12/19 18:47:00;;;;;;;11.43;6.93;;;;;;;6.25;72.22;100484.19;10512416;28;20089;-77
2022/12/19 18:52:04;;;;;;;11.63;6.57;;;;;;;6.32;72.14;100474.84;10508961;28;20052;-78
2022/12/19 18:57:10;;;;;;;9.55;6.00;;;;;;;6.25;71.85;100478.84;10511089;28;20040;-75
2022/12/19 19:02:23;;;;;;;11.20;6.97;;;;;;;6.29;71.85;100472.38;10501097;28;20101;-76
2022/12/19 19:07:28;;;;;;;10.85;7.32;;;;;;;6.43;72.38;100476.00;10492731;28;20316;-76
2022/12/19 19:12:31;;;;;;;10.65;6.63;;;;;;;6.46;71.75;100475.81;10493771;28;20557;-76
2022/12/19 19:17:34;;;;;;;10.63;5.55;;;;;;;6.55;71.17;100472.56;10494425;28;20040;-77
2022/12/19 19:22:38;;;;;;;13.57;7.38;;;;;;;6.65;71.21;100470.19;10494111;28;20052;-77
2022/12/19 19:27:41;;;;;;;8.95;5.82;;;;;;;6.61;71.31;100459.69;10493549;28;20040;-77
2022/12/19 19:32:49;;;;;;;10.70;6.15;;;;;;;6.78;71.01;100453.28;10506106;28;20044;-77
2022/12/19 19:37:56;;;;;;;10.40;5.82;;;;;;;6.64;70.40;100450.66;10514290;28;20098;-77
2022/12/19 19:42:59;;;;;;;8.98;6.50;;;;;;;6.84;70.49;100460.88;10501497;28;20044;-76
2022/12/19 19:48:02;;;;;;;8.80;6.45;;;;;;;7.02;70.15;100466.91;10495769;28;20114;-77
2022/12/19 19:53:06;;;;;;;12.43;6.82;;;;;;;6.96;69.68;100469.09;10492347;28;20075;-77
2022/12/19 19:58:09;;;;;;;12.25;6.75;;;;;;;6.87;70.97;100485.69;10495971;28;20044;-76
2022/12/19 20:03:12;;;;;;;9.85;7.53;;;;;;;6.82;71.42;100483.31;10499059;28;20521;-77
2022/12/19 20:08:25;;;;;;;11.97;7.00;;;;;;;6.87;71.68;100497.25;10482814;28;20055;-77
2022/12/19 20:13:29;;;;;;;19.52;12.80;;;;;;;6.40;70.41;100485.91;10500891;28;20040;-76
2022/12/19 20:18:32;;;;;;;11.52;6.82;;;;;;;6.58;72.45;100497.28;10500166;28;20417;-77
2022/12/19 20:23:37;;;;;;;11.50;6.55;;;;;;;6.99;70.81;100485.81;10499907;28;20158;-76
2022/12/19 20:28:40;;;;;;;10.43;6.40;;;;;;;7.23;69.48;100490.50;10496892;28;20040;-77
2022/12/19 20:33:51;;;;;;;8.98;6.30;;;;;;;7.29;69.40;100500.78;10498207;28;20076;-76
2022/12/19 20:38:56;;;;;;;10.73;5.82;;;;;;;7.20;69.77;100499.56;10500504;28;20090;-76
2022/12/19 20:43:59;;;;;;;9.10;6.03;;;;;;;7.21;69.84;100500.41;10492705;28;20059;-76
2022/12/19 20:49:02;;;;;;;9.43;4.97;;;;;;;7.25;69.82;100502.81;10475152;28;20602;-76
2022/12/19 20:54:07;;;;;;;6.65;5.25;;;;;;;7.38;69.28;100497.53;10495995;28;20044;-76
2022/12/19 20:59:10;;;;;;;9.95;5.70;;;;;;;7.38;69.24;100500.19;10496798;28;20078;-77
2022/12/19 21:04:14;;;;;;;10.38;6.47;;;;;;;7.35;69.56;100508.41;10498660;28;20044;-76
2022/12/19 21:09:18;;;;;;;8.75;5.38;;;;;;;7.38;69.57;100513.56;10497519;28;20040;-77
2022/12/19 21:14:21;;;;;;;8.63;5.10;;;;;;;7.40;69.34;100514.28;10498572;28;20094;-75
2022/12/19 21:19:24;;;;;;;10.68;6.25;;;;;;;7.53;69.26;100517.03;10496466;28;20048;-74
2022/12/19 21:24:28;;;;;;;10.52;5.93;;;;;;;7.63;69.06;100512.78;10495179;28;20056;-76
2022/12/19 21:29:31;;;;;;;8.32;5.53;;;;;;;7.47;69.77;100504.91;10495946;28;20044;-76
2022/12/19 21:34:34;;;;;;;12.27;5.50;;;;;;;7.55;69.62;100492.88;10496503;28;20409;-75
2022/12/19 21:39:38;;;;;;;8.55;5.13;;;;;;;7.70;69.15;100503.38;10509920;28;20085;-76
2022/12/19 21:44:41;;;;;;;8.95;5.57;;;;;;;7.39;70.26;100490.34;10497090;28;20048;-76
2022/12/19 21:49:44;;;;;;;9.18;6.00;;;;;;;7.52;70.19;100485.91;10495980;28;20497;-77
2022/12/19 21:54:48;;;;;;;7.00;4.85;;;;;;;7.50;70.30;100483.31;10496493;28;20094;-77
2022/12/19 21:59:51;;;;;;;7.60;5.22;;;;;;;7.60;70.25;100493.44;10497616;28;20036;-76
2022/12/19 22:04:54;;;;;;;8.95;5.10;;;;;;;7.47;70.67;100504.91;10499148;28;20093;-76
2022/12/19 22:09:58;;;;;;;6.93;4.30;;;;;;;7.51;70.14;100486.84;10494444;28;20563;-76
2022/12/19 22:15:01;;;;;;;8.68;5.50;;;;;;;7.76;69.97;100472.69;10496829;28;20144;-76
2022/12/19 22:20:07;;;;;;;7.75;4.88;;;;;;;7.60;71.06;100459.53;10498487;28;20037;-77
2022/12/19 22:25:12;;;;;;;7.38;5.05;;;;;;;7.56;71.57;100465.16;10499979;28;20056;-77
2022/12/19 22:30:15;;;;;;;5.78;4.57;;;;;;;7.64;71.57;100465.50;10512010;28;20040;-75
2022/12/19 22:35:18;;;;;;;6.75;5.72;;;;;;;7.75;71.66;100457.63;10481941;28;20049;-76
2022/12/19 22:40:22;;;;;;;7.80;4.93;;;;;;;7.66;71.83;100460.94;10491047;28;20465;-77
2022/12/19 22:45:25;;;;;;;7.80;5.40;;;;;;;7.75;72.30;100462.09;10493568;28;20056;-76
2022/12/19 22:50:28;;;;;;;7.95;4.53;;;;;;;7.97;71.63;100465.03;10492052;28;20071;-76
2022/12/19 22:55:32;;;;;;;8.35;4.68;;;;;;;7.78;72.37;100460.06;10489719;28;20098;-76
2022/12/19 23:00:35;;;;;;;7.90;4.90;;;;;;;7.80;72.39;100449.28;10492475;28;20498;-76
2022/12/19 23:05:38;;;;;;;8.35;4.72;;;;;;;7.94;72.18;100446.50;10491411;28;20074;-76
2022/12/19 23:10:42;;;;;;;7.45;4.93;;;;;;;8.00;72.41;100456.78;10491042;28;20053;-76
2022/12/19 23:15:45;;;;;;;8.05;5.10;;;;;;;7.91;72.98;100458.28;10490797;28;20463;-76
2022/12/19 23:20:48;;;;;;;7.65;5.20;;;;;;;7.97;73.37;100451.66;10489663;28;20048;-76
2022/12/19 23:25:52;;;;;;;7.90;4.72;;;;;;;8.04;73.29;100441.41;10489730;28;20041;-76
2022/12/19 23:31:02;;;;;;;6.72;5.07;;;;;;;7.98;73.89;100452.50;10492337;28;20094;-75
2022/12/19 23:36:05;;;;;;;8.43;4.88;;;;;;;8.21;73.25;100441.06;10501143;28;20036;-76
2022/12/19 23:41:11;;;;;;;6.78;4.47;;;;;;;8.15;73.54;100438.81;10498775;28;20072;-76
2022/12/19 23:46:15;;;;;;;9.00;4.72;;;;;;;8.07;74.04;100425.97;10499716;28;20059;-76
2022/12/19 23:51:20;;;;;;;5.90;4.45;;;;;;;8.15;73.80;100428.97;10500923;28;20048;-76